Time;durP1;ratioP1;P1;durP2;ratioP2;P2;SDS_P1;SDS_P2;PMS_P1;PMS_P2;Temp;Humidity;BMP_temperature;BMP_pressure;BME280_temperature;BME280_humidity;BME280_pressure;Samples;Min_cycle;Max_cycle;Signal;HPM_P1;HPM_P2
2023/11/07 00:00:33;;;;;;;3.42;1.27;;;;;;;10.12;47.49;100363.34;4990262;28;20073;-83
2023/11/07 00:03:01;;;;;;;2.80;1.27;;;;;;;10.09;47.20;100362.75;4993102;28;20045;-81
2023/11/07 00:05:29;;;;;;;2.78;1.10;;;;;;;10.10;47.52;100365.34;4988557;28;20061;-81
2023/11/07 00:07:57;;;;;;;3.53;1.20;;;;;;;10.10;47.24;100370.81;4990499;28;20498;-81
2023/11/07 00:10:28;;;;;;;2.22;1.10;;;;;;;10.10;47.57;100378.16;4992792;28;20054;-81
2023/11/07 00:12:58;;;;;;;3.33;1.10;;;;;;;10.11;47.51;100377.16;4991341;28;20050;-81
2023/11/07 00:15:26;;;;;;;2.28;1.10;;;;;;;10.07;47.28;100370.25;4990482;28;20061;-81
2023/11/07 00:17:54;;;;;;;2.45;1.10;;;;;;;10.07;47.31;100367.53;5010701;28;20074;-80
2023/11/07 00:20:22;;;;;;;2.50;1.10;;;;;;;10.06;47.58;100383.06;5000191;28;20542;-80
2023/11/07 00:22:50;;;;;;;3.70;1.58;;;;;;;10.05;47.38;100380.47;4986214;28;20486;-80
2023/11/07 00:25:18;;;;;;;2.70;1.13;;;;;;;10.04;47.54;100376.00;4988174;28;20062;-80
2023/11/07 00:27:46;;;;;;;2.75;1.40;;;;;;;10.05;47.37;100375.00;4975564;28;20050;-80
2023/11/07 00:30:15;;;;;;;1.73;0.98;;;;;;;10.05;47.50;100367.66;4977117;28;20069;-80
2023/11/07 00:32:44;;;;;;;2.00;1.00;;;;;;;10.02;47.56;100373.41;4991859;28;20046;-81
2023/11/07 00:35:12;;;;;;;3.67;1.23;;;;;;;10.04;47.27;100370.53;4985751;28;20462;-81
2023/11/07 00:37:40;;;;;;;2.17;1.17;;;;;;;10.00;47.51;100375.41;4985014;28;20050;-80
2023/11/07 00:40:10;;;;;;;3.75;0.98;;;;;;;10.02;47.46;100378.00;4989766;28;20054;-81
2023/11/07 00:42:38;;;;;;;2.50;0.98;;;;;;;10.01;47.22;100387.19;4986512;28;20054;-81
2023/11/07 00:45:08;;;;;;;2.83;1.00;;;;;;;10.00;47.56;100383.59;4980060;28;20454;-81
2023/11/07 00:47:38;;;;;;;2.35;1.00;;;;;;;10.00;47.48;100383.59;4984098;28;20565;-81
2023/11/07 00:50:10;;;;;;;6.32;1.48;;;;;;;10.00;47.31;100388.22;4979583;28;20054;-80
2023/11/07 00:52:39;;;;;;;2.33;0.93;;;;;;;9.95;47.31;100387.78;4998012;28;20043;-82
2023/11/07 00:55:08;;;;;;;1.92;0.93;;;;;;;9.98;47.73;100393.84;4984091;28;20510;-81
2023/11/07 00:57:36;;;;;;;2.20;1.02;;;;;;;9.96;47.37;100393.13;4988977;28;20064;-82
2023/11/07 01:00:05;;;;;;;1.85;0.85;;;;;;;9.98;47.67;100401.19;4988796;28;20073;-81
2023/11/07 01:02:33;;;;;;;3.05;0.95;;;;;;;9.97;47.43;100393.97;4993825;28;20153;-80
2023/11/07 01:05:03;;;;;;;2.60;0.88;;;;;;;9.99;47.31;100398.28;5007815;28;20073;-80
2023/11/07 01:07:31;;;;;;;2.53;0.90;;;;;;;9.99;47.80;100397.44;4989942;28;20050;-81
2023/11/07 01:09:59;;;;;;;1.85;0.82;;;;;;;10.00;47.56;100407.34;4986176;28;20141;-81
2023/11/07 01:12:28;;;;;;;2.03;1.00;;;;;;;9.99;47.83;100405.63;4990641;28;20061;-81
2023/11/07 01:14:55;;;;;;;3.83;0.90;;;;;;;9.98;47.84;100401.19;4994330;28;20108;-80
2023/11/07 01:17:24;;;;;;;2.50;0.82;;;;;;;9.99;47.79;100409.22;4992914;28;20049;-81
2023/11/07 01:19:52;;;;;;;1.83;0.93;;;;;;;10.00;47.71;100404.59;4995353;28;20052;-80
2023/11/07 01:22:22;;;;;;;3.17;1.20;;;;;;;9.99;47.64;100402.91;4993669;28;20052;-82
2023/11/07 01:24:50;;;;;;;2.05;1.00;;;;;;;9.99;47.55;100411.94;4996423;28;20153;-83
2023/11/07 01:27:18;;;;;;;1.90;0.80;;;;;;;10.00;47.84;100408.22;4991365;28;20708;-81
2023/11/07 01:29:46;;;;;;;1.70;1.52;;;;;;;9.99;47.45;100409.22;4997129;28;20061;-83
2023/11/07 01:32:14;;;;;;;1.73;0.88;;;;;;;9.99;47.82;100411.13;4993489;28;20667;-82
2023/11/07 01:34:43;;;;;;;1.75;0.77;;;;;;;9.99;47.82;100411.13;4983687;28;20724;-82
2023/11/07 01:37:11;;;;;;;2.55;0.90;;;;;;;10.01;47.84;100414.53;4982640;28;20050;-82
2023/11/07 01:39:41;;;;;;;2.47;1.00;;;;;;;10.01;47.74;100426.34;4974685;28;20815;-83
2023/11/07 01:42:09;;;;;;;3.42;1.00;;;;;;;10.00;47.69;100419.16;5007257;28;20057;-83
2023/11/07 01:44:48;;;;;;;2.80;0.85;;;;;;;10.03;47.84;100421.59;4991319;28;20049;-83
2023/11/07 01:47:18;;;;;;;1.80;0.80;;;;;;;10.01;47.76;100411.81;4987076;28;20050;-83
2023/11/07 01:49:47;;;;;;;1.70;0.85;;;;;;;10.03;48.05;100412.53;4991734;28;20546;-84
2023/11/07 01:52:18;;;;;;;1.63;0.90;;;;;;;10.03;47.70;100407.06;5000815;28;20137;-83
2023/11/07 01:54:51;;;;;;;1.00;0.52;;;;;;;10.06;47.79;100412.28;4999754;28;20063;-84
2023/11/07 01:57:20;;;;;;;1.40;0.85;;;;;;;10.04;48.18;100411.53;5021892;28;20498;-82
2023/11/07 01:59:49;;;;;;;2.40;0.90;;;;;;;10.06;47.78;100413.13;5023727;28;20323;-81
2023/11/07 02:02:19;;;;;;;1.58;0.70;;;;;;;10.06;47.63;100415.88;5007446;28;20137;-81
2023/11/07 02:04:47;;;;;;;2.13;0.90;;;;;;;10.07;47.63;100424.94;5009572;28;20026;-82
2023/11/07 02:07:17;;;;;;;2.70;0.88;;;;;;;10.07;47.92;100419.47;5004434;28;20110;-82
2023/11/07 02:09:48;;;;;;;2.33;0.75;;;;;;;10.08;47.79;100419.31;4996318;28;20054;-83
2023/11/07 02:12:16;;;;;;;1.33;0.77;;;;;;;10.06;48.00;100415.88;4997967;28;20057;-83
2023/11/07 02:14:43;;;;;;;2.60;0.82;;;;;;;10.06;47.79;100421.34;4995751;28;20050;-81
2023/11/07 02:17:12;;;;;;;1.55;1.00;;;;;;;10.06;47.84;100421.34;4993054;28;20102;-81
2023/11/07 02:19:40;;;;;;;2.65;0.90;;;;;;;10.05;47.45;100418.72;4992747;28;20046;-81
2023/11/07 02:22:10;;;;;;;1.77;0.82;;;;;;;10.07;47.72;100416.72;5007038;28;20172;-83
2023/11/07 02:24:39;;;;;;;1.88;0.88;;;;;;;10.05;47.80;100416.00;4991188;28;20050;-83
2023/11/07 02:27:08;;;;;;;1.88;0.90;;;;;;;10.04;47.87;100422.47;4994746;28;20790;-82
2023/11/07 02:29:35;;;;;;;1.92;0.80;;;;;;;10.01;47.64;100409.94;4990118;28;20174;-82
2023/11/07 02:32:04;;;;;;;2.88;0.93;;;;;;;10.02;47.68;100410.81;4991478;28;20054;-81
2023/11/07 02:34:32;;;;;;;2.05;0.75;;;;;;;10.00;47.83;100412.81;4987685;28;20231;-81
2023/11/07 02:37:00;;;;;;;1.33;0.80;;;;;;;9.98;47.70;100407.50;4983463;28;20868;-81
2023/11/07 02:39:28;;;;;;;1.77;0.68;;;;;;;9.97;47.67;100408.50;4967145;28;20672;-83
2023/11/07 02:41:57;;;;;;;1.13;0.80;;;;;;;9.97;47.81;100410.38;4986446;28;20078;-82
2023/11/07 02:44:25;;;;;;;1.35;0.70;;;;;;;9.94;47.30;100414.25;4990707;28;20057;-80
2023/11/07 02:46:53;;;;;;;2.42;0.90;;;;;;;9.93;47.81;100415.25;4992180;28;20381;-81
2023/11/07 02:49:21;;;;;;;0.88;0.65;;;;;;;9.91;47.46;100416.38;4989702;28;20058;-81
2023/11/07 02:51:49;;;;;;;2.95;0.90;;;;;;;9.91;47.36;100419.13;5005397;28;20050;-82
2023/11/07 02:54:17;;;;;;;4.30;0.90;;;;;;;9.89;47.90;100411.09;4980879;28;20117;-82
2023/11/07 02:56:45;;;;;;;2.65;1.25;;;;;;;9.87;47.47;100412.22;4989820;28;20562;-81
2023/11/07 02:59:15;;;;;;;1.30;0.85;;;;;;;9.87;47.52;100409.50;4982603;28;20752;-82
2023/11/07 03:01:42;;;;;;;2.03;0.88;;;;;;;9.84;47.51;100410.63;4986376;28;20056;-81
2023/11/07 03:04:11;;;;;;;2.20;0.90;;;;;;;9.83;47.90;100411.63;4988794;28;20754;-82
2023/11/07 03:06:40;;;;;;;1.70;0.80;;;;;;;9.80;47.71;100415.53;5003703;28;20062;-81
2023/11/07 03:09:08;;;;;;;1.42;0.85;;;;;;;9.82;47.54;100418.13;4988225;28;20065;-82
2023/11/07 03:11:36;;;;;;;2.40;1.20;;;;;;;9.79;47.91;100416.53;4988518;28;20085;-82
2023/11/07 03:14:05;;;;;;;2.45;1.00;;;;;;;9.79;47.46;100423.84;4995207;28;20576;-82
2023/11/07 03:16:37;;;;;;;1.67;0.90;;;;;;;9.80;47.62;100422.84;4993140;28;20060;-85
2023/11/07 03:19:07;;;;;;;2.85;1.23;;;;;;;9.74;47.63;100410.59;4991270;28;20425;-84
2023/11/07 03:21:36;;;;;;;2.83;1.35;;;;;;;9.75;47.63;100417.78;4997371;28;20110;-81
2023/11/07 03:24:04;;;;;;;2.53;1.00;;;;;;;9.73;47.66;100410.75;5004692;28;20265;-83
2023/11/07 03:26:32;;;;;;;1.90;0.85;;;;;;;9.74;47.64;100412.50;5000092;28;20057;-83
2023/11/07 03:29:00;;;;;;;1.92;0.80;;;;;;;9.73;47.50;100414.38;4999419;28;20077;-82
2023/11/07 03:31:28;;;;;;;1.77;0.90;;;;;;;9.73;47.80;100408.03;4993016;28;20046;-84
2023/11/07 03:33:57;;;;;;;2.47;0.90;;;;;;;9.74;48.09;100421.53;5001401;28;20054;-83
2023/11/07 03:36:25;;;;;;;3.88;1.00;;;;;;;9.71;48.28;100413.63;4987307;28;20058;-83
2023/11/07 03:38:53;;;;;;;3.30;0.85;;;;;;;9.71;47.87;100418.22;5012298;28;20042;-82
2023/11/07 03:41:22;;;;;;;1.77;0.80;;;;;;;9.71;47.94;100420.97;5011884;28;20050;-81
2023/11/07 03:43:50;;;;;;;1.65;0.88;;;;;;;9.70;47.67;100406.44;5004467;28;20046;-82
2023/11/07 03:46:18;;;;;;;1.25;0.82;;;;;;;9.69;47.83;100407.44;4999923;28;20502;-83
2023/11/07 03:48:45;;;;;;;2.58;1.00;;;;;;;9.69;48.26;100410.16;4995119;28;20048;-83
2023/11/07 03:51:15;;;;;;;2.15;0.90;;;;;;;9.71;48.39;100404.56;4994469;28;20062;-83
2023/11/07 03:53:43;;;;;;;3.00;0.98;;;;;;;9.68;48.03;100407.56;4998255;28;20112;-82
2023/11/07 03:56:11;;;;;;;2.80;1.05;;;;;;;9.71;48.25;100410.03;4999627;28;20461;-83
2023/11/07 03:58:39;;;;;;;1.80;0.95;;;;;;;9.71;48.28;100413.63;5015254;28;20122;-83
2023/11/07 04:01:07;;;;;;;0.93;0.70;;;;;;;9.72;48.44;100412.63;4997208;28;20045;-80
2023/11/07 04:03:35;;;;;;;1.92;0.90;;;;;;;9.73;48.05;100422.56;5000531;28;20049;-81
2023/11/07 04:06:03;;;;;;;1.63;0.85;;;;;;;9.74;48.02;100407.88;5000310;28;20052;-82
2023/11/07 04:08:34;;;;;;;3.15;0.95;;;;;;;9.77;48.31;100413.06;4998026;28;20100;-82
2023/11/07 04:11:02;;;;;;;1.95;1.00;;;;;;;9.76;48.05;100414.06;4998463;28;20129;-82
2023/11/07 04:13:30;;;;;;;1.88;0.90;;;;;;;9.76;48.06;100416.78;5005704;28;20093;-81
2023/11/07 04:15:58;;;;;;;1.40;0.70;;;;;;;9.77;47.86;100414.94;5006038;28;20046;-82
2023/11/07 04:18:26;;;;;;;1.92;0.90;;;;;;;9.78;48.16;100419.41;5006552;28;20073;-82
2023/11/07 04:20:55;;;;;;;2.60;0.90;;;;;;;9.77;48.34;100423.13;5005583;28;20138;-81
2023/11/07 04:23:23;;;;;;;2.00;0.90;;;;;;;9.78;47.90;100422.13;5006003;28;20088;-81
2023/11/07 04:25:52;;;;;;;3.22;1.08;;;;;;;9.80;47.72;100431.06;5002487;28;20064;-81
2023/11/07 04:28:20;;;;;;;3.70;0.90;;;;;;;9.77;47.92;100431.31;5018634;28;20062;-81
2023/11/07 04:30:48;;;;;;;1.55;1.00;;;;;;;9.78;48.25;100430.31;4999743;28;20053;-81
2023/11/07 04:33:16;;;;;;;1.90;0.75;;;;;;;9.76;48.23;100425.00;5002056;28;20060;-81
2023/11/07 04:35:45;;;;;;;1.52;1.00;;;;;;;9.79;48.36;100432.94;5004808;28;20048;-82
2023/11/07 04:38:13;;;;;;;2.08;0.90;;;;;;;9.80;48.06;100425.59;5016843;28;20113;-80
2023/11/07 04:40:41;;;;;;;2.85;0.90;;;;;;;9.80;48.39;100426.47;4992165;28;20042;-82
2023/11/07 04:43:10;;;;;;;2.70;0.93;;;;;;;9.82;48.32;100426.31;5011301;28;21078;-82
2023/11/07 04:45:39;;;;;;;2.35;1.10;;;;;;;9.81;47.88;100422.72;5000917;28;20163;-82
2023/11/07 04:48:07;;;;;;;2.85;1.20;;;;;;;9.81;48.08;100425.47;5000092;28;20047;-82
2023/11/07 04:50:36;;;;;;;2.55;1.08;;;;;;;9.82;48.14;100420.84;4997327;28;20050;-83
2023/11/07 04:53:04;;;;;;;1.83;1.05;;;;;;;9.83;48.36;100420.69;4996236;28;20518;-82
2023/11/07 04:55:32;;;;;;;1.83;0.80;;;;;;;9.83;48.34;100419.81;5006209;28;20077;-81
2023/11/07 04:58:01;;;;;;;3.25;1.30;;;;;;;9.84;48.27;100416.09;5023591;28;20112;-80
2023/11/07 05:00:30;;;;;;;2.15;0.90;;;;;;;9.87;48.01;100418.56;5004620;28;20588;-79
2023/11/07 05:02:58;;;;;;;1.65;0.90;;;;;;;9.86;47.85;100425.03;5001486;28;20429;-83
2023/11/07 05:05:26;;;;;;;4.03;1.00;;;;;;;9.87;48.11;100426.75;4998079;28;20050;-81
2023/11/07 05:07:54;;;;;;;1.70;0.85;;;;;;;9.87;47.83;100429.50;5009467;28;20105;-81
2023/11/07 05:10:22;;;;;;;1.80;0.90;;;;;;;9.87;48.05;100418.56;5011427;28;20157;-82
2023/11/07 05:12:50;;;;;;;1.25;0.80;;;;;;;9.85;48.08;100426.88;5013974;28;20113;-81
2023/11/07 05:15:18;;;;;;;0.88;0.80;;;;;;;9.87;47.97;100429.50;5014789;28;20062;-81
2023/11/07 05:17:48;;;;;;;2.78;1.02;;;;;;;9.90;48.22;100433.81;5015202;28;20046;-81
2023/11/07 05:20:16;;;;;;;1.92;0.90;;;;;;;9.89;47.99;100437.56;5005506;28;20388;-81
2023/11/07 05:22:44;;;;;;;1.80;0.90;;;;;;;9.88;47.90;100433.09;5006995;28;20117;-80
2023/11/07 05:25:12;;;;;;;3.42;0.90;;;;;;;9.88;48.00;100433.09;5002947;28;20073;-79
2023/11/07 05:27:40;;;;;;;2.67;0.90;;;;;;;9.88;48.34;100431.22;5003639;28;20046;-81
2023/11/07 05:30:09;;;;;;;1.08;0.70;;;;;;;9.90;48.02;100439.28;5002173;28;20096;-81
2023/11/07 05:32:37;;;;;;;2.92;0.98;;;;;;;9.88;47.85;100425.75;5002311;28;20058;-81
2023/11/07 05:35:08;;;;;;;3.47;1.00;;;;;;;9.91;48.00;100430.06;4998825;28;20122;-80
2023/11/07 05:37:37;;;;;;;2.85;1.00;;;;;;;9.88;48.50;100433.09;5003214;28;20047;-81
2023/11/07 05:40:06;;;;;;;2.42;1.00;;;;;;;9.90;48.11;100428.34;5002800;28;20639;-81
2023/11/07 05:42:37;;;;;;;1.83;1.20;;;;;;;9.87;48.07;100424.03;5001745;28;20042;-82
2023/11/07 05:45:07;;;;;;;2.38;0.98;;;;;;;9.91;48.36;100424.59;4997746;28;20050;-81
2023/11/07 05:47:37;;;;;;;3.22;1.27;;;;;;;9.89;48.25;100430.22;4998719;28;20069;-82
2023/11/07 05:50:07;;;;;;;1.92;1.05;;;;;;;9.91;48.40;100424.59;5000679;28;20494;-82
2023/11/07 05:52:35;;;;;;;2.90;1.05;;;;;;;9.90;48.17;100431.97;4999491;28;20049;-85
2023/11/07 05:55:06;;;;;;;1.63;0.93;;;;;;;9.90;48.26;100434.69;4999156;28;20054;-82
2023/11/07 05:57:35;;;;;;;2.80;1.00;;;;;;;9.90;48.70;100437.41;4998088;28;20054;-82
2023/11/07 06:00:07;;;;;;;2.25;0.90;;;;;;;9.91;48.33;100430.06;4995977;28;20409;-82
2023/11/07 06:02:38;;;;;;;2.15;1.00;;;;;;;9.91;48.19;100430.06;4995090;28;20050;-83
2023/11/07 06:05:11;;;;;;;1.73;0.93;;;;;;;9.91;48.60;100430.06;4996000;28;20054;-83
2023/11/07 06:07:39;;;;;;;4.47;1.10;;;;;;;9.89;48.66;100432.09;4998600;28;20450;-81
2023/11/07 06:10:08;;;;;;;3.33;1.00;;;;;;;9.92;48.14;100432.66;4997688;28;20049;-82
2023/11/07 06:12:36;;;;;;;1.83;1.00;;;;;;;9.91;48.19;100435.53;4996017;28;20515;-82
2023/11/07 06:15:05;;;;;;;1.80;0.88;;;;;;;9.91;48.35;100438.25;5002146;28;20053;-82
2023/11/07 06:17:33;;;;;;;2.92;0.90;;;;;;;9.89;48.41;100435.69;5011503;28;20046;-81
2023/11/07 06:20:02;;;;;;;1.85;0.73;;;;;;;9.91;48.52;100444.59;4991924;28;20049;-83
2023/11/07 06:22:31;;;;;;;2.20;0.90;;;;;;;9.89;48.04;100441.16;4997094;28;20092;-84
2023/11/07 06:24:59;;;;;;;2.33;1.02;;;;;;;9.89;48.71;100443.88;5013481;28;20048;-83
2023/11/07 06:27:27;;;;;;;2.83;0.98;;;;;;;9.90;48.65;100444.75;4999535;28;20156;-84
2023/11/07 06:29:55;;;;;;;1.80;1.20;;;;;;;9.90;48.57;100434.69;4996497;28;20453;-84
2023/11/07 06:32:23;;;;;;;1.27;0.80;;;;;;;9.90;48.37;100442.88;5002419;28;20205;-82
2023/11/07 06:34:51;;;;;;;2.50;1.10;;;;;;;9.90;48.16;100447.50;5014197;28;20465;-83
2023/11/07 06:37:19;;;;;;;3.83;0.80;;;;;;;9.89;48.45;100448.50;4998877;28;20104;-81
2023/11/07 06:39:49;;;;;;;3.13;0.85;;;;;;;9.90;48.39;100453.81;4995847;28;20135;-83
2023/11/07 06:42:18;;;;;;;0.90;0.60;;;;;;;9.88;48.21;100458.56;5002119;28;20134;-81
2023/11/07 06:44:46;;;;;;;1.58;0.77;;;;;;;9.89;48.26;100467.63;5003074;28;20084;-82
2023/11/07 06:47:14;;;;;;;1.52;0.80;;;;;;;9.89;48.58;100467.63;4998899;28;20834;-82
2023/11/07 06:49:42;;;;;;;3.20;0.90;;;;;;;9.89;48.46;100471.22;5011059;28;20046;-82
2023/11/07 06:52:10;;;;;;;3.20;0.88;;;;;;;9.90;48.57;100469.34;5014167;28;20077;-81
2023/11/07 06:54:37;;;;;;;2.05;0.88;;;;;;;9.88;48.54;100461.28;4998003;28;20054;-80
2023/11/07 06:57:08;;;;;;;1.10;0.80;;;;;;;9.92;48.73;100470.06;4991170;28;20881;-82
2023/11/07 06:59:36;;;;;;;2.17;0.90;;;;;;;9.90;48.71;100474.81;5004148;28;20049;-84
2023/11/07 07:02:04;;;;;;;1.73;0.80;;;;;;;9.90;48.80;100472.09;4988335;28;21756;-81
2023/11/07 07:04:33;;;;;;;1.85;0.82;;;;;;;9.87;48.52;100470.50;4987046;28;20046;-83
2023/11/07 07:07:02;;;;;;;1.95;1.10;;;;;;;9.90;48.37;100477.56;4992923;28;20070;-84
2023/11/07 07:09:34;;;;;;;1.23;0.70;;;;;;;9.85;48.73;100481.56;4995499;28;20046;-84
2023/11/07 07:12:02;;;;;;;2.33;1.08;;;;;;;9.87;48.73;100486.03;5000303;28;20076;-85
2023/11/07 07:14:32;;;;;;;1.65;0.80;;;;;;;9.89;48.46;100490.34;4980588;28;20057;-85
2023/11/07 07:17:03;;;;;;;1.85;0.90;;;;;;;9.88;48.74;100490.50;4980487;28;20047;-87
2023/11/07 07:19:37;;;;;;;1.63;0.77;;;;;;;9.87;48.53;100495.09;4984406;28;20054;-87
2023/11/07 07:22:27;;;;;;;1.85;0.82;;;;;;;9.86;48.39;100501.56;5016992;28;20060;-79
2023/11/07 07:24:55;;;;;;;2.03;0.85;;;;;;;9.85;48.57;100492.50;4993315;28;20064;-80
2023/11/07 07:27:27;;;;;;;1.05;0.75;;;;;;;9.88;48.48;100493.22;5002390;28;20102;-84
2023/11/07 07:29:56;;;;;;;2.05;0.70;;;;;;;9.88;48.57;100494.09;4984853;28;20145;-83
2023/11/07 07:32:26;;;;;;;1.83;0.77;;;;;;;9.87;49.01;100495.09;4990238;28;20034;-84
2023/11/07 07:34:54;;;;;;;1.20;0.60;;;;;;;9.88;48.86;100499.56;4989809;28;20042;-84
2023/11/07 07:37:23;;;;;;;1.30;0.80;;;;;;;9.90;48.44;100494.81;4990164;28;20060;-84
2023/11/07 07:39:51;;;;;;;1.65;0.70;;;;;;;9.90;48.89;100507.63;4988613;28;20057;-84
2023/11/07 07:42:19;;;;;;;1.27;0.80;;;;;;;9.90;48.80;100510.34;4993637;28;20061;-84
2023/11/07 07:44:50;;;;;;;1.33;0.60;;;;;;;9.91;48.52;100503.84;5008029;28;20073;-84
2023/11/07 07:47:20;;;;;;;2.40;0.90;;;;;;;9.90;48.73;100494.81;4993410;28;20140;-84
2023/11/07 07:49:48;;;;;;;2.38;0.88;;;;;;;9.92;48.97;100503.72;4992027;28;20165;-83
2023/11/07 07:52:22;;;;;;;2.38;0.73;;;;;;;9.93;48.58;100518.25;4988669;28;20124;-84
2023/11/07 07:54:50;;;;;;;1.67;0.80;;;;;;;9.91;48.47;100512.94;4990189;28;20117;-84
2023/11/07 07:57:38;;;;;;;1.13;0.70;;;;;;;9.92;48.84;100517.38;4988764;28;20046;-84
2023/11/07 08:00:12;;;;;;;2.10;0.70;;;;;;;9.95;48.96;100513.53;4991781;28;20050;-84
2023/11/07 08:02:41;;;;;;;1.02;0.65;;;;;;;9.95;48.71;100522.59;4993871;28;20580;-84
2023/11/07 08:05:14;;;;;;;1.05;0.60;;;;;;;9.95;48.89;100527.19;4994406;28;20070;-84
2023/11/07 08:07:42;;;;;;;1.10;0.65;;;;;;;9.93;48.48;100527.31;4995075;28;20050;-84
2023/11/07 08:10:16;;;;;;;1.27;0.73;;;;;;;9.97;48.60;100531.53;4994571;28;20533;-85
2023/11/07 08:12:44;;;;;;;1.38;0.60;;;;;;;9.98;48.94;100526.94;4995851;28;20427;-85
2023/11/07 08:15:12;;;;;;;1.55;0.63;;;;;;;9.97;48.88;100520.59;4996773;28;20725;-85
2023/11/07 08:17:42;;;;;;;1.23;0.60;;;;;;;10.02;48.75;100533.84;4969346;28;20097;-85
2023/11/07 08:20:15;;;;;;;1.85;0.80;;;;;;;10.02;49.07;100531.97;4996804;28;20054;-84
2023/11/07 08:22:48;;;;;;;1.52;0.88;;;;;;;10.00;49.08;100524.91;5009225;28;20049;-85
2023/11/07 08:25:18;;;;;;;1.25;0.60;;;;;;;10.04;48.70;100529.97;5011936;28;20057;-84
2023/11/07 08:27:46;;;;;;;1.45;0.70;;;;;;;10.03;48.82;100530.97;5029018;28;20043;-83
2023/11/07 08:30:22;;;;;;;1.40;0.55;;;;;;;10.08;48.59;100542.34;4996674;28;20061;-85
2023/11/07 08:32:53;;;;;;;1.42;0.57;;;;;;;10.08;48.74;100545.06;5016014;28;20057;-84
2023/11/07 08:35:21;;;;;;;1.45;0.60;;;;;;;10.08;48.94;100544.22;5016102;28;20085;-85
2023/11/07 08:37:51;;;;;;;1.55;0.80;;;;;;;10.10;48.87;100547.69;5022405;28;20046;-85
2023/11/07 08:40:21;;;;;;;1.25;0.60;;;;;;;10.12;48.71;100545.69;5021430;28;20049;-85
2023/11/07 08:42:50;;;;;;;0.82;0.50;;;;;;;10.14;48.83;100555.47;5006492;28;20168;-85
2023/11/07 08:45:20;;;;;;;2.58;0.90;;;;;;;10.16;48.61;100552.56;5005331;28;20053;-85
2023/11/07 08:47:52;;;;;;;1.30;0.63;;;;;;;10.17;48.91;100549.72;5007844;28;20053;-84
2023/11/07 08:50:21;;;;;;;0.50;0.50;;;;;;;10.18;48.54;100547.84;5004900;28;20062;-85
2023/11/07 08:52:50;;;;;;;2.67;0.60;;;;;;;10.20;48.81;100554.03;5007622;28;20050;-85
2023/11/07 08:55:19;;;;;;;2.45;0.77;;;;;;;10.22;48.42;100560.25;5007020;28;20141;-84
2023/11/07 08:57:49;;;;;;;1.83;0.60;;;;;;;10.21;48.52;100553.91;5007303;28;20050;-85
2023/11/07 09:00:21;;;;;;;0.52;0.50;;;;;;;10.24;48.35;100570.03;5006497;28;20478;-84
2023/11/07 09:02:52;;;;;;;1.33;0.60;;;;;;;10.23;48.36;100562.81;5009208;28;20148;-84
2023/11/07 09:05:22;;;;;;;2.10;0.82;;;;;;;10.26;48.53;100561.69;5007597;28;20077;-84
2023/11/07 09:07:50;;;;;;;1.10;0.68;;;;;;;10.27;48.19;100555.22;5006888;28;20121;-84
2023/11/07 09:10:20;;;;;;;1.08;0.60;;;;;;;10.29;48.41;100564.16;4999894;28;20058;-84
2023/11/07 09:12:48;;;;;;;2.38;0.80;;;;;;;10.31;48.67;100564.03;5008082;28;20056;-85
2023/11/07 09:15:19;;;;;;;1.90;0.90;;;;;;;10.31;48.25;100564.88;5006586;28;20081;-83
2023/11/07 09:17:48;;;;;;;2.50;0.82;;;;;;;10.30;48.86;100570.50;5013998;28;20050;-84
2023/11/07 09:20:18;;;;;;;2.13;0.75;;;;;;;10.35;48.41;100570.94;5006145;28;20061;-84
2023/11/07 09:22:47;;;;;;;1.67;0.95;;;;;;;10.35;48.91;100574.53;5007761;28;20046;-84
2023/11/07 09:25:15;;;;;;;2.03;0.90;;;;;;;10.38;48.27;100576.13;5002504;28;20417;-85
2023/11/07 09:27:43;;;;;;;1.98;0.90;;;;;;;10.38;48.59;100576.13;5002814;28;20046;-84
2023/11/07 09:30:13;;;;;;;1.40;0.68;;;;;;;10.41;48.65;100575.81;5005455;28;20108;-84
2023/11/07 09:32:43;;;;;;;2.03;0.73;;;;;;;10.42;48.47;100578.44;4982352;28;20122;-85
2023/11/07 09:35:12;;;;;;;1.77;1.17;;;;;;;10.44;48.47;100586.50;5012495;28;20119;-85
2023/11/07 09:37:41;;;;;;;1.27;0.70;;;;;;;10.48;48.28;100587.97;5008143;28;20062;-85
2023/11/07 09:40:17;;;;;;;3.13;1.08;;;;;;;10.47;48.19;100589.84;4997687;28;20133;-84
2023/11/07 09:42:51;;;;;;;2.47;0.80;;;;;;;10.47;48.36;100592.56;4993807;28;20837;-84
2023/11/07 09:45:20;;;;;;;2.53;1.05;;;;;;;10.49;48.19;100593.28;4994211;28;20162;-85
2023/11/07 09:47:50;;;;;;;3.10;0.90;;;;;;;10.50;48.25;100591.41;4996419;28;20057;-85
2023/11/07 09:50:21;;;;;;;2.00;0.80;;;;;;;10.52;48.47;100598.47;4975762;28;20063;-85
2023/11/07 09:52:52;;;;;;;1.30;0.80;;;;;;;10.55;48.09;100590.03;4974684;28;20093;-85
2023/11/07 09:55:21;;;;;;;1.92;0.80;;;;;;;10.52;48.12;100590.28;4985865;28;20548;-85
2023/11/07 09:57:56;;;;;;;3.78;0.90;;;;;;;10.59;48.53;100594.19;5002700;28;20144;-84
2023/11/07 10:00:43;;;;;;;1.30;0.65;;;;;;;10.59;48.69;100596.06;5003860;28;20100;-84
2023/11/07 10:03:13;;;;;;;1.27;0.65;;;;;;;10.62;48.93;100601.28;5016187;28;20046;-84
2023/11/07 10:05:42;;;;;;;2.50;0.90;;;;;;;10.65;48.57;100602.88;4994929;28;20592;-85
2023/11/07 10:08:11;;;;;;;1.67;0.60;;;;;;;10.71;48.33;100594.09;5006922;28;20046;-84
2023/11/07 10:10:40;;;;;;;1.65;0.80;;;;;;;10.72;48.50;100598.56;5003880;28;20053;-84
2023/11/07 10:13:10;;;;;;;1.77;0.80;;;;;;;10.76;48.67;100600.84;5000695;28;20076;-85
2023/11/07 10:15:39;;;;;;;3.20;0.80;;;;;;;10.76;48.22;100600.00;4998163;28;20052;-85
2023/11/07 10:18:12;;;;;;;1.02;0.57;;;;;;;10.82;48.38;100607.63;5002257;28;20042;-84
2023/11/07 10:20:55;;;;;;;1.52;0.80;;;;;;;10.84;48.31;100611.09;5003374;28;20064;-84
2023/11/07 10:23:28;;;;;;;2.28;0.73;;;;;;;10.83;48.24;100604.75;4980460;28;20787;-84
2023/11/07 10:26:11;;;;;;;1.73;0.63;;;;;;;10.85;48.12;100613.69;4981663;28;20053;-84
2023/11/07 10:28:39;;;;;;;1.67;0.70;;;;;;;10.85;48.12;100610.97;4977132;28;20058;-84
2023/11/07 10:34:20;;;;;;;1.98;0.93;;;;;;;10.88;47.82;100613.41;5001018;28;20062;-83
2023/11/07 10:36:49;;;;;;;1.52;0.70;;;;;;;10.87;47.74;100613.56;5002855;28;20064;-84
2023/11/07 10:39:21;;;;;;;1.63;0.77;;;;;;;10.92;47.89;100614.84;4971299;28;20622;-83
2023/11/07 10:41:49;;;;;;;;;;;;;;;10.67;48.28;100612.66;4994903;28;20046;-84
2023/11/07 10:44:23;;;;;;;1.48;0.70;;;;;;;10.91;47.51;100624.06;4990200;28;20361;-84
2023/11/07 10:46:53;;;;;;;2.30;0.80;;;;;;;10.93;47.83;100615.72;4988825;28;20056;-85
2023/11/07 10:49:22;;;;;;;3.13;0.80;;;;;;;10.95;47.69;100617.31;4973203;28;20057;-84
2023/11/07 10:51:50;;;;;;;2.38;1.00;;;;;;;10.97;47.72;100612.56;4976605;28;20132;-84
2023/11/07 10:54:22;;;;;;;1.60;0.80;;;;;;;10.99;47.68;100615.13;4991422;28;20057;-83
2023/11/07 10:56:51;;;;;;;1.85;0.95;;;;;;;10.98;47.33;100606.06;4993760;28;20046;-84
2023/11/07 10:59:23;;;;;;;0.80;0.50;;;;;;;10.98;47.42;100607.94;4991247;28;20732;-83
2023/11/07 11:01:52;;;;;;;2.05;0.85;;;;;;;11.01;47.79;100615.88;5007578;28;20045;-84
2023/11/07 11:04:23;;;;;;;1.67;0.80;;;;;;;11.03;47.30;100594.69;4993287;28;20046;-84
2023/11/07 11:06:53;;;;;;;1.65;0.80;;;;;;;11.05;47.59;100605.50;4992161;28;20285;-84
2023/11/07 11:09:25;;;;;;;1.75;0.93;;;;;;;11.06;47.57;100605.34;5003712;28;20126;-83
2023/11/07 11:11:55;;;;;;;1.25;0.80;;;;;;;11.07;47.97;100607.06;5009250;28;20054;-83
2023/11/07 11:14:25;;;;;;;2.45;0.95;;;;;;;11.13;47.95;100597.44;4991667;28;20552;-84
2023/11/07 11:16:58;;;;;;;1.80;0.80;;;;;;;11.17;48.02;100597.00;4990327;28;20046;-83
2023/11/07 11:19:33;;;;;;;2.10;1.05;;;;;;;11.23;47.59;100601.88;4990357;28;20068;-83
2023/11/07 11:22:11;;;;;;;2.28;0.90;;;;;;;11.28;47.37;100598.72;4992888;28;20430;-82
2023/11/07 11:24:58;;;;;;;2.00;0.90;;;;;;;11.36;47.20;100593.38;4989964;28;20788;-83
2023/11/07 11:27:34;;;;;;;2.38;0.80;;;;;;;11.42;47.75;100590.03;4992665;28;20065;-82
2023/11/07 11:30:05;;;;;;;3.33;0.80;;;;;;;11.47;47.87;100592.38;4981500;28;20411;-84
2023/11/07 11:32:33;;;;;;;1.92;0.80;;;;;;;11.51;47.37;100593.78;5005303;28;20034;-84
2023/11/07 11:35:29;;;;;;;2.05;1.10;;;;;;;11.54;46.49;100579.78;5012354;28;20093;-84
2023/11/07 11:38:13;;;;;;;1.88;0.80;;;;;;;11.66;46.46;100592.34;4999516;28;20360;-84
2023/11/07 11:40:54;;;;;;;3.38;0.90;;;;;;;11.70;45.99;100591.91;4997335;28;20114;-84
2023/11/07 11:43:24;;;;;;;1.73;0.90;;;;;;;11.71;46.76;100596.38;5000458;28;20626;-84